Time;durP1;ratioP1;P1;durP2;ratioP2;P2;SDS_P1;SDS_P2;PMS_P1;PMS_P2;Temp;Humidity;BMP_temperature;BMP_pressure;BME280_temperature;BME280_humidity;BME280_pressure;Samples;Min_cycle;Max_cycle;Signal;HPM_P1;HPM_P2
2022/01/17 00:00:31;;;;;;;44.45;22.55;;;;;;;;;;4934422;28;20034;-71
2022/01/17 00:02:59;;;;;;;39.35;20.83;;;;;;;;;;4934330;29;20408;-71
2022/01/17 00:05:26;;;;;;;50.88;22.77;;;;;;;;;;4934258;29;20054;-72
2022/01/17 00:07:52;;;;;;;44.45;21.95;;;;;;;;;;4933992;29;20027;-71
2022/01/17 00:10:19;;;;;;;51.33;25.33;;;;;;;;;;4934188;29;20024;-71
2022/01/17 00:12:46;;;;;;;45.20;22.40;;;;;;;;;;4934216;29;20092;-71
2022/01/17 00:15:22;;;;;;;43.63;21.90;;;;;;;;;;4964947;28;20036;-71
2022/01/17 00:17:56;;;;;;;45.00;22.15;;;;;;;;;;4934271;29;20024;-71
2022/01/17 00:20:26;;;;;;;43.70;22.08;;;;;;;;;;4931078;29;20481;-71
2022/01/17 00:22:53;;;;;;;47.58;22.83;;;;;;;;;;4933837;29;20032;-71
2022/01/17 00:25:20;;;;;;;40.40;20.42;;;;;;;;;;4933977;29;20425;-71
2022/01/17 00:27:48;;;;;;;40.65;21.38;;;;;;;;;;4933953;29;20031;-71
2022/01/17 00:30:15;;;;;;;45.35;21.90;;;;;;;;;;4934373;29;20030;-71
2022/01/17 00:32:41;;;;;;;44.35;21.08;;;;;;;;;;4933714;29;20023;-71
2022/01/17 00:35:07;;;;;;;47.88;21.88;;;;;;;;;;4934620;29;20054;-71
2022/01/17 00:37:34;;;;;;;39.17;19.00;;;;;;;;;;4933847;29;20031;-71
2022/01/17 00:40:00;;;;;;;31.23;16.75;;;;;;;;;;4933947;29;20039;-71
2022/01/17 00:42:27;;;;;;;31.90;17.42;;;;;;;;;;4934076;29;20449;-71
2022/01/17 00:44:53;;;;;;;35.08;17.55;;;;;;;;;;4934259;29;20030;-71
2022/01/17 00:47:19;;;;;;;33.55;18.98;;;;;;;;;;4933894;29;20024;-71
2022/01/17 00:49:46;;;;;;;38.50;20.15;;;;;;;;;;4934013;29;20038;-71
2022/01/17 00:52:12;;;;;;;50.65;24.23;;;;;;;;;;4933857;29;20028;-71
2022/01/17 00:54:38;;;;;;;49.92;25.80;;;;;;;;;;4933997;29;20042;-71
2022/01/17 00:57:05;;;;;;;51.60;25.88;;;;;;;;;;4934053;29;20020;-71
2022/01/17 00:59:31;;;;;;;47.60;23.90;;;;;;;;;;4933829;29;20036;-71
2022/01/17 01:01:58;;;;;;;55.13;25.50;;;;;;;;;;4950461;28;20094;-71
2022/01/17 01:04:24;;;;;;;45.00;24.58;;;;;;;;;;4937254;29;20023;-70
2022/01/17 01:06:51;;;;;;;45.88;23.38;;;;;;;;;;4937501;29;20496;-71
2022/01/17 01:09:17;;;;;;;37.00;19.75;;;;;;;;;;4968245;28;20031;-71
2022/01/17 01:11:44;;;;;;;39.08;20.55;;;;;;;;;;4937309;29;20023;-71
2022/01/17 01:14:10;;;;;;;35.20;19.40;;;;;;;;;;4938147;29;20038;-71
2022/01/17 01:16:37;;;;;;;38.50;18.70;;;;;;;;;;4936909;29;20036;-71
2022/01/17 01:19:18;;;;;;;39.15;20.08;;;;;;;;;;4937320;29;20030;-71
2022/01/17 01:30:01;;;;;;;41.53;21.55;;;;;;;;;;4936721;29;20027;-70
2022/01/17 01:32:37;;;;;;;42.20;21.00;;;;;;;;;;4936999;29;20050;-71
2022/01/17 01:35:08;;;;;;;37.05;18.88;;;;;;;;;;4936408;29;20028;-71
2022/01/17 01:37:35;;;;;;;35.53;19.52;;;;;;;;;;4936942;29;20024;-71
2022/01/17 01:40:01;;;;;;;37.28;19.73;;;;;;;;;;4936651;29;20042;-70
2022/01/17 01:42:30;;;;;;;39.40;20.27;;;;;;;;;;4936769;29;20030;-70
2022/01/17 01:44:56;;;;;;;39.75;21.55;;;;;;;;;;4936539;29;20377;-70
2022/01/17 01:47:25;;;;;;;40.63;21.90;;;;;;;;;;4936936;29;20022;-71
2022/01/17 01:49:51;;;;;;;44.85;22.60;;;;;;;;;;4937206;29;20034;-71
2022/01/17 01:52:17;;;;;;;42.58;21.10;;;;;;;;;;4936717;29;20026;-70
2022/01/17 01:54:44;;;;;;;43.58;23.15;;;;;;;;;;4936988;29;20028;-71
2022/01/17 01:57:11;;;;;;;41.25;22.13;;;;;;;;;;4936687;28;20038;-71
2022/01/17 01:59:37;;;;;;;45.83;22.48;;;;;;;;;;4936345;29;20036;-70
2022/01/17 02:02:05;;;;;;;42.65;22.85;;;;;;;;;;4937479;29;20031;-70
2022/01/17 02:04:31;;;;;;;42.63;21.05;;;;;;;;;;4936187;29;20040;-71
2022/01/17 02:06:58;;;;;;;47.58;22.70;;;;;;;;;;4936374;29;20038;-71
2022/01/17 02:09:24;;;;;;;37.78;20.58;;;;;;;;;;4936579;29;20042;-71
2022/01/17 02:11:51;;;;;;;41.95;22.38;;;;;;;;;;4936337;29;20020;-71
2022/01/17 02:14:17;;;;;;;46.30;23.30;;;;;;;;;;4936980;29;20034;-71
2022/01/17 02:16:47;;;;;;;45.38;23.08;;;;;;;;;;4936036;29;20026;-70
2022/01/17 02:19:13;;;;;;;43.80;22.73;;;;;;;;;;4935922;29;20082;-71
2022/01/17 02:24:12;;;;;;;59.88;26.10;;;;;;;;;;4936085;29;20030;-70
2022/01/17 02:26:39;;;;;;;50.78;22.38;;;;;;;;;;4936078;29;20493;-70
2022/01/17 02:29:06;;;;;;;42.97;21.52;;;;;;;;;;4936347;29;20034;-70
2022/01/17 02:31:32;;;;;;;50.55;24.08;;;;;;;;;;4936135;29;20034;-71
2022/01/17 02:33:59;;;;;;;46.15;23.20;;;;;;;;;;4935864;29;20035;-71
2022/01/17 02:36:25;;;;;;;47.67;24.33;;;;;;;;;;4935936;29;20022;-70
2022/01/17 02:38:51;;;;;;;37.67;20.00;;;;;;;;;;4935963;29;20036;-71
2022/01/17 02:41:18;;;;;;;33.45;17.98;;;;;;;;;;4936502;29;20083;-70
2022/01/17 02:43:46;;;;;;;39.53;19.95;;;;;;;;;;4935581;29;20404;-71
2022/01/17 02:48:39;;;;;;;39.13;21.42;;;;;;;;;;4935531;29;20030;-71
2022/01/17 02:51:06;;;;;;;44.17;22.27;;;;;;;;;;4935731;29;20031;-71
2022/01/17 02:53:32;;;;;;;42.88;21.40;;;;;;;;;;4936033;29;20016;-70
2022/01/17 02:56:03;;;;;;;38.70;20.83;;;;;;;;;;4936226;29;20035;-70
2022/01/17 02:58:33;;;;;;;37.90;19.40;;;;;;;;;;4935306;29;20034;-71
2022/01/17 03:00:59;;;;;;;38.72;19.55;;;;;;;;;;4935323;29;20098;-71
2022/01/17 03:03:28;;;;;;;35.17;19.77;;;;;;;;;;4935597;29;20016;-70
2022/01/17 03:05:55;;;;;;;40.58;21.30;;;;;;;;;;4935085;29;20467;-71
2022/01/17 03:08:23;;;;;;;40.70;19.27;;;;;;;;;;4935603;29;20500;-71
2022/01/17 03:10:53;;;;;;;44.90;22.05;;;;;;;;;;4935672;29;20023;-71
2022/01/17 03:13:20;;;;;;;37.15;19.10;;;;;;;;;;4934838;29;20028;-71
2022/01/17 03:15:53;;;;;;;41.95;19.80;;;;;;;;;;4935212;29;20432;-71
2022/01/17 03:18:19;;;;;;;34.78;19.10;;;;;;;;;;4935203;29;20034;-71
2022/01/17 03:20:46;;;;;;;36.10;18.50;;;;;;;;;;4949406;29;20031;-70
2022/01/17 03:23:12;;;;;;;37.60;19.73;;;;;;;;;;4935533;29;20030;-71
2022/01/17 03:25:38;;;;;;;35.50;19.10;;;;;;;;;;4934112;29;20038;-70
2022/01/17 03:28:05;;;;;;;37.65;19.75;;;;;;;;;;4934999;29;20034;-70
2022/01/17 03:30:33;;;;;;;38.10;20.15;;;;;;;;;;4934785;29;20034;-71
2022/01/17 03:33:04;;;;;;;39.55;19.45;;;;;;;;;;4934957;29;20030;-70
2022/01/17 03:35:30;;;;;;;37.20;19.98;;;;;;;;;;4934869;29;20028;-71
2022/01/17 03:37:56;;;;;;;33.67;17.80;;;;;;;;;;4935127;29;20511;-71
2022/01/17 03:40:22;;;;;;;33.92;18.42;;;;;;;;;;4934315;29;20028;-71
2022/01/17 03:42:49;;;;;;;36.53;19.48;;;;;;;;;;4934523;29;20038;-70
2022/01/17 03:45:16;;;;;;;41.90;21.42;;;;;;;;;;4934814;29;20027;-71
2022/01/17 03:47:44;;;;;;;44.20;22.90;;;;;;;;;;4934504;29;20489;-71
2022/01/17 03:50:12;;;;;;;43.78;22.83;;;;;;;;;;4935524;29;20040;-70
2022/01/17 03:52:41;;;;;;;40.95;20.58;;;;;;;;;;4934493;29;20024;-71
2022/01/17 03:55:09;;;;;;;37.65;18.60;;;;;;;;;;4934448;29;20024;-71
2022/01/17 03:57:35;;;;;;;34.78;18.58;;;;;;;;;;4934667;29;20023;-71
2022/01/17 04:00:04;;;;;;;32.55;16.92;;;;;;;;;;4934412;29;20113;-71
2022/01/17 04:02:31;;;;;;;33.75;17.77;;;;;;;;;;4934661;29;20082;-71
2022/01/17 04:04:57;;;;;;;34.10;17.75;;;;;;;;;;4934882;29;20488;-71
2022/01/17 04:07:23;;;;;;;32.83;18.95;;;;;;;;;;4934090;29;20408;-71
2022/01/17 04:09:50;;;;;;;36.58;20.17;;;;;;;;;;4964767;28;20396;-71
2022/01/17 04:12:16;;;;;;;32.72;18.58;;;;;;;;;;4934277;29;20027;-71
2022/01/17 04:14:42;;;;;;;37.33;18.73;;;;;;;;;;4934470;29;20026;-71
2022/01/17 04:17:08;;;;;;;35.53;18.95;;;;;;;;;;4934958;29;20404;-71
2022/01/17 04:19:35;;;;;;;35.60;19.33;;;;;;;;;;4934123;29;20040;-71
2022/01/17 04:22:01;;;;;;;37.65;19.33;;;;;;;;;;4934076;29;20026;-71
2022/01/17 04:24:28;;;;;;;37.55;18.40;;;;;;;;;;4933649;29;20027;-71
2022/01/17 04:26:54;;;;;;;32.47;16.75;;;;;;;;;;4934174;29;20016;-71
2022/01/17 04:29:20;;;;;;;32.92;17.38;;;;;;;;;;4934618;29;20028;-71
2022/01/17 04:31:47;;;;;;;33.38;17.17;;;;;;;;;;4934452;29;20038;-71
2022/01/17 04:34:14;;;;;;;32.15;16.75;;;;;;;;;;4934246;29;20038;-71
2022/01/17 04:36:40;;;;;;;30.90;16.92;;;;;;;;;;4935214;29;20042;-71
2022/01/17 04:39:06;;;;;;;33.03;16.35;;;;;;;;;;4937724;29;20027;-71
2022/01/17 04:41:39;;;;;;;36.60;17.30;;;;;;;;;;4938330;29;20032;-71
2022/01/17 04:46:50;;;;;;;41.00;20.50;;;;;;;;;;4938188;29;20032;-71
2022/01/17 04:49:17;;;;;;;37.67;19.73;;;;;;;;;;4938109;29;20032;-71
2022/01/17 04:51:45;;;;;;;39.08;20.33;;;;;;;;;;4938271;29;20035;-71
2022/01/17 04:55:01;;;;;;;40.72;20.55;;;;;;;;;;4937632;29;20024;-71
2022/01/17 04:56:58;;;;;;;38.80;20.70;;;;;;;;;;4940651;29;20042;-71
2022/01/17 04:59:24;;;;;;;36.85;19.88;;;;;;;;;;4937561;29;20086;-71
2022/01/17 05:01:51;;;;;;;38.00;20.63;;;;;;;;;;4937971;29;20031;-71
2022/01/17 05:04:17;;;;;;;38.92;21.23;;;;;;;;;;4937647;29;20016;-71
2022/01/17 05:06:43;;;;;;;37.78;19.52;;;;;;;;;;4937524;29;20046;-71
2022/01/17 05:09:10;;;;;;;35.28;19.58;;;;;;;;;;4937267;29;20078;-71
2022/01/17 05:11:36;;;;;;;37.22;19.73;;;;;;;;;;4966966;28;20035;-72
2022/01/17 05:14:02;;;;;;;38.95;20.20;;;;;;;;;;4937997;29;20058;-71
2022/01/17 05:16:36;;;;;;;43.05;20.13;;;;;;;;;;4937494;29;20035;-71
2022/01/17 05:21:48;;;;;;;37.30;18.80;;;;;;;;;;4936770;29;20388;-70
2022/01/17 05:24:14;;;;;;;35.28;17.42;;;;;;;;;;4937236;29;20026;-71
2022/01/17 05:26:41;;;;;;;39.97;19.55;;;;;;;;;;4937086;29;20039;-71
2022/01/17 05:29:07;;;;;;;35.15;18.77;;;;;;;;;;4937723;29;20023;-71
2022/01/17 05:31:34;;;;;;;35.50;18.00;;;;;;;;;;4937017;29;20544;-71
2022/01/17 05:34:00;;;;;;;44.60;20.67;;;;;;;;;;4936852;29;20040;-71
2022/01/17 05:36:26;;;;;;;46.15;20.05;;;;;;;;;;4936597;29;20040;-71
2022/01/17 05:38:53;;;;;;;46.65;21.15;;;;;;;;;;4936928;29;20038;-72
2022/01/17 05:41:20;;;;;;;46.92;21.77;;;;;;;;;;4937747;29;20036;-71
2022/01/17 05:43:46;;;;;;;42.33;21.13;;;;;;;;;;4937189;29;20035;-71
2022/01/17 05:46:12;;;;;;;44.78;20.20;;;;;;;;;;4936841;29;20023;-71
2022/01/17 05:48:39;;;;;;;38.45;19.92;;;;;;;;;;4936413;29;20046;-71
2022/01/17 05:51:05;;;;;;;34.78;17.40;;;;;;;;;;4936532;29;20016;-71
2022/01/17 05:53:32;;;;;;;34.25;16.30;;;;;;;;;;4936781;29;20469;-71
2022/01/17 05:55:59;;;;;;;26.65;15.93;;;;;;;;;;4937151;29;20058;-71
2022/01/17 05:58:25;;;;;;;27.92;15.15;;;;;;;;;;4936376;29;20026;-71
2022/01/17 06:00:52;;;;;;;32.53;15.65;;;;;;;;;;4936775;29;20031;-71
2022/01/17 06:03:18;;;;;;;33.03;15.88;;;;;;;;;;4936965;29;20012;-71
2022/01/17 06:05:45;;;;;;;35.78;18.15;;;;;;;;;;4935912;29;20110;-71
2022/01/17 06:08:12;;;;;;;34.40;18.75;;;;;;;;;;4937409;29;20031;-71
2022/01/17 06:10:38;;;;;;;38.65;19.10;;;;;;;;;;4936354;29;20381;-71
2022/01/17 06:13:05;;;;;;;38.80;19.38;;;;;;;;;;4936221;29;20027;-71
2022/01/17 06:15:31;;;;;;;32.65;16.88;;;;;;;;;;4936329;29;20027;-71
2022/01/17 06:17:58;;;;;;;38.17;15.82;;;;;;;;;;4936372;29;20094;-71
2022/01/17 06:20:25;;;;;;;33.75;15.35;;;;;;;;;;4963936;28;20043;-71
2022/01/17 06:22:51;;;;;;;32.45;15.18;;;;;;;;;;4936639;29;20046;-71
2022/01/17 06:25:17;;;;;;;28.85;15.65;;;;;;;;;;4936060;29;20023;-71
2022/01/17 06:27:44;;;;;;;31.95;16.38;;;;;;;;;;4936057;29;20028;-71
2022/01/17 06:30:13;;;;;;;32.75;16.60;;;;;;;;;;4936111;29;20063;-71
2022/01/17 06:32:40;;;;;;;35.58;17.05;;;;;;;;;;4936074;29;20030;-71
2022/01/17 06:35:06;;;;;;;38.33;18.13;;;;;;;;;;4936209;29;20035;-72
2022/01/17 06:37:33;;;;;;;34.63;16.90;;;;;;;;;;4935157;29;20032;-72
2022/01/17 06:39:59;;;;;;;38.13;18.80;;;;;;;;;;4935609;29;20057;-72
2022/01/17 06:42:25;;;;;;;39.30;19.88;;;;;;;;;;4934811;29;20032;-70
2022/01/17 06:44:52;;;;;;;39.30;19.98;;;;;;;;;;4935106;29;20046;-71
2022/01/17 06:47:19;;;;;;;37.15;19.83;;;;;;;;;;4962988;28;20034;-71
2022/01/17 06:49:45;;;;;;;42.35;20.75;;;;;;;;;;4934425;29;20031;-70
2022/01/17 06:52:11;;;;;;;45.53;21.88;;;;;;;;;;4935461;29;20022;-71
2022/01/17 06:54:38;;;;;;;127.93;44.92;;;;;;;;;;4935192;29;20515;-71
2022/01/17 06:57:04;;;;;;;58.50;28.33;;;;;;;;;;4950147;29;20018;-71
2022/01/17 06:59:30;;;;;;;55.20;24.48;;;;;;;;;;4934696;29;20035;-71
2022/01/17 07:01:57;;;;;;;46.95;23.80;;;;;;;;;;4936090;29;20028;-71
2022/01/17 07:04:23;;;;;;;45.13;22.95;;;;;;;;;;4934721;29;20028;-71
2022/01/17 07:06:50;;;;;;;49.70;23.30;;;;;;;;;;4935183;29;20032;-71
2022/01/17 07:09:19;;;;;;;46.97;23.95;;;;;;;;;;4935510;29;20036;-71
2022/01/17 07:11:45;;;;;;;59.22;28.70;;;;;;;;;;4935300;29;20019;-71
2022/01/17 07:14:12;;;;;;;71.63;37.83;;;;;;;;;;4935272;29;20382;-72
2022/01/17 07:16:42;;;;;;;102.63;50.03;;;;;;;;;;4933176;29;20400;-71
2022/01/17 07:19:09;;;;;;;81.30;39.08;;;;;;;;;;4933773;29;20030;-71
2022/01/17 07:21:35;;;;;;;74.10;35.97;;;;;;;;;;4934998;29;20027;-71
2022/01/17 07:24:02;;;;;;;109.90;50.83;;;;;;;;;;4934548;29;20030;-71
2022/01/17 07:26:28;;;;;;;91.07;43.42;;;;;;;;;;4934739;29;20024;-71
2022/01/17 07:28:54;;;;;;;62.58;31.40;;;;;;;;;;4935067;29;20027;-71
2022/01/17 07:31:21;;;;;;;58.83;28.00;;;;;;;;;;4931946;29;20071;-71
2022/01/17 07:33:47;;;;;;;54.50;25.50;;;;;;;;;;4933490;28;20034;-71
2022/01/17 07:36:18;;;;;;;55.03;25.25;;;;;;;;;;4934475;29;20023;-71
2022/01/17 07:38:44;;;;;;;56.08;25.60;;;;;;;;;;4934379;29;20028;-71
2022/01/17 07:41:11;;;;;;;60.38;28.63;;;;;;;;;;4935262;29;20027;-71
2022/01/17 07:43:38;;;;;;;61.72;29.08;;;;;;;;;;4933500;29;20125;-71
2022/01/17 07:46:18;;;;;;;62.97;30.55;;;;;;;;;;4933824;29;20032;-71
2022/01/17 07:51:27;;;;;;;69.10;32.13;;;;;;;;;;4933465;29;19933;-71
2022/01/17 07:53:54;;;;;;;74.22;34.60;;;;;;;;;;4949305;29;20020;-71
2022/01/17 07:56:21;;;;;;;78.78;34.72;;;;;;;;;;4934078;29;20480;-71
2022/01/17 07:58:47;;;;;;;74.55;35.08;;;;;;;;;;4948555;29;20036;-71
2022/01/17 08:01:14;;;;;;;67.38;32.65;;;;;;;;;;4933860;29;20028;-72
2022/01/17 08:03:40;;;;;;;61.45;30.77;;;;;;;;;;4933490;29;20032;-71
2022/01/17 08:06:06;;;;;;;49.05;25.27;;;;;;;;;;4932788;29;20056;-71
2022/01/17 08:08:33;;;;;;;54.88;21.80;;;;;;;;;;4933069;29;20038;-71
2022/01/17 08:10:59;;;;;;;49.33;21.50;;;;;;;;;;4934748;29;20046;-71
2022/01/17 08:13:26;;;;;;;43.17;20.13;;;;;;;;;;4933776;29;20023;-71
2022/01/17 08:15:52;;;;;;;53.90;24.05;;;;;;;;;;4932087;29;20031;-71
2022/01/17 08:18:18;;;;;;;57.22;24.77;;;;;;;;;;4931303;29;20026;-72
2022/01/17 08:20:45;;;;;;;48.35;22.77;;;;;;;;;;4932834;29;20051;-72
2022/01/17 08:23:11;;;;;;;43.53;21.02;;;;;;;;;;4931682;29;20027;-72
2022/01/17 08:25:38;;;;;;;42.05;21.77;;;;;;;;;;4932594;29;20031;-72
2022/01/17 08:28:04;;;;;;;42.20;21.60;;;;;;;;;;4932585;29;20057;-71
2022/01/17 08:30:32;;;;;;;38.03;21.98;;;;;;;;;;4931962;29;20041;-72
2022/01/17 08:32:59;;;;;;;38.22;22.10;;;;;;;;;;4932365;29;20027;-71
2022/01/17 08:35:26;;;;;;;41.40;22.55;;;;;;;;;;4932811;29;20024;-71
2022/01/17 08:37:52;;;;;;;43.95;21.45;;;;;;;;;;4931628;29;20049;-72
2022/01/17 08:40:19;;;;;;;39.58;21.13;;;;;;;;;;4932497;29;20040;-71
2022/01/17 08:42:46;;;;;;;41.25;21.38;;;;;;;;;;4932602;29;20444;-72
2022/01/17 08:45:13;;;;;;;38.55;21.65;;;;;;;;;;4931595;28;20402;-73
2022/01/17 08:47:39;;;;;;;33.72;21.02;;;;;;;;;;4931846;29;20428;-72
2022/01/17 08:50:07;;;;;;;41.17;21.55;;;;;;;;;;4931463;29;20042;-72
2022/01/17 08:52:33;;;;;;;46.30;23.23;;;;;;;;;;4931947;29;20035;-72
2022/01/17 08:55:00;;;;;;;39.80;22.73;;;;;;;;;;4932981;29;20028;-72
2022/01/17 08:57:26;;;;;;;34.90;20.23;;;;;;;;;;4932389;29;20378;-72
2022/01/17 08:59:53;;;;;;;41.28;21.13;;;;;;;;;;4963106;28;20034;-72
2022/01/17 09:02:19;;;;;;;38.15;21.30;;;;;;;;;;4932220;29;20047;-72
2022/01/17 09:04:46;;;;;;;25.73;17.95;;;;;;;;;;4932260;29;20044;-72
2022/01/17 09:07:15;;;;;;;25.63;17.27;;;;;;;;;;4932431;29;20038;-72
2022/01/17 09:09:43;;;;;;;30.33;18.63;;;;;;;;;;4932567;29;20031;-73
2022/01/17 09:12:10;;;;;;;31.33;18.80;;;;;;;;;;4932552;29;20089;-72
2022/01/17 09:14:37;;;;;;;31.38;20.60;;;;;;;;;;4930880;29;20032;-72
2022/01/17 09:17:06;;;;;;;28.77;20.10;;;;;;;;;;4933128;29;20031;-73
2022/01/17 09:19:33;;;;;;;30.15;19.83;;;;;;;;;;4932110;29;20041;-72
2022/01/17 09:21:59;;;;;;;26.20;17.40;;;;;;;;;;4932336;29;20027;-73
2022/01/17 09:24:26;;;;;;;49.72;29.38;;;;;;;;;;4935942;28;20028;-72
2022/01/17 09:26:52;;;;;;;35.95;24.30;;;;;;;;;;4934889;29;20400;-72
2022/01/17 09:29:18;;;;;;;24.98;16.58;;;;;;;;;;4935532;29;20392;-72
2022/01/17 09:31:45;;;;;;;22.02;17.30;;;;;;;;;;4934493;29;20036;-72
2022/01/17 09:34:12;;;;;;;22.65;16.10;;;;;;;;;;4934625;29;20028;-72
2022/01/17 09:36:38;;;;;;;24.92;15.35;;;;;;;;;;4935032;29;20031;-72
2022/01/17 09:39:06;;;;;;;21.92;16.42;;;;;;;;;;4935496;29;20028;-71
2022/01/17 09:41:33;;;;;;;25.02;16.45;;;;;;;;;;4935301;29;20515;-71
2022/01/17 09:43:59;;;;;;;24.60;17.23;;;;;;;;;;4935086;29;20523;-72
2022/01/17 09:46:32;;;;;;;22.63;16.00;;;;;;;;;;4934691;29;20036;-72
2022/01/17 09:49:13;;;;;;;21.50;15.73;;;;;;;;;;4935433;29;20543;-72
2022/01/17 09:52:03;;;;;;;;;;;;;;;;;;4936090;29;20026;-72
2022/01/17 09:54:30;;;;;;;22.63;15.63;;;;;;;;;;4933643;29;20327;-71
2022/01/17 09:56:57;;;;;;;24.45;16.27;;;;;;;;;;4934774;29;20031;-72
2022/01/17 09:59:23;;;;;;;28.48;15.70;;;;;;;;;;4935577;29;20039;-71
2022/01/17 10:01:51;;;;;;;25.60;16.42;;;;;;;;;;4934929;29;20023;-71
2022/01/17 10:04:17;;;;;;;22.25;15.45;;;;;;;;;;4935130;29;20036;-71
2022/01/17 10:06:51;;;;;;;23.08;15.68;;;;;;;;;;4933430;29;20052;-71
2022/01/17 10:09:21;;;;;;;23.33;16.98;;;;;;;;;;4934739;29;20036;-70
2022/01/17 10:12:03;;;;;;;24.33;17.20;;;;;;;;;;4934641;29;20035;-72
2022/01/17 10:14:35;;;;;;;22.23;16.83;;;;;;;;;;4935093;29;20172;-70
2022/01/17 10:17:05;;;;;;;25.30;17.67;;;;;;;;;;4932405;29;20038;-70
2022/01/17 10:19:31;;;;;;;25.77;17.17;;;;;;;;;;4934878;29;20040;-71
2022/01/17 10:22:00;;;;;;;27.67;16.80;;;;;;;;;;4934881;29;20485;-71
2022/01/17 10:24:53;;;;;;;24.65;17.63;;;;;;;;;;4934775;29;20044;-71
2022/01/17 10:30:27;;;;;;;28.90;18.50;;;;;;;;;;4935064;29;20039;-71
2022/01/17 10:35:36;;;;;;;31.00;18.90;;;;;;;;;;4933394;29;20039;-71
2022/01/17 10:38:02;;;;;;;26.83;17.50;;;;;;;;;;4948265;29;20034;-71
2022/01/17 10:40:34;;;;;;;25.77;18.38;;;;;;;;;;4933871;29;20046;-71
2022/01/17 10:43:02;;;;;;;23.35;16.48;;;;;;;;;;4934844;29;20067;-71
2022/01/17 10:45:33;;;;;;;29.20;17.50;;;;;;;;;;4934767;29;20034;-71
2022/01/17 10:48:01;;;;;;;25.77;17.20;;;;;;;;;;4934888;29;20060;-71
2022/01/17 10:50:29;;;;;;;22.90;16.73;;;;;;;;;;4934025;29;20028;-71
2022/01/17 10:52:57;;;;;;;23.35;17.08;;;;;;;;;;4933556;29;20023;-72
2022/01/17 10:55:28;;;;;;;23.13;17.73;;;;;;;;;;4933845;29;20020;-71
2022/01/17 10:57:56;;;;;;;22.58;16.52;;;;;;;;;;4964514;28;20425;-72
2022/01/17 11:00:25;;;;;;;25.77;17.30;;;;;;;;;;4934403;29;20038;-71
2022/01/17 11:02:56;;;;;;;23.85;17.10;;;;;;;;;;4933937;29;20020;-71
2022/01/17 11:05:23;;;;;;;27.90;16.67;;;;;;;;;;4931123;29;20069;-71
2022/01/17 11:07:52;;;;;;;24.10;17.35;;;;;;;;;;4934371;29;20031;-71
2022/01/17 11:10:19;;;;;;;23.40;17.35;;;;;;;;;;4933702;28;20026;-71
2022/01/17 11:12:45;;;;;;;24.48;17.02;;;;;;;;;;4934156;29;20027;-71
2022/01/17 11:15:13;;;;;;;26.33;17.00;;;;;;;;;;4934127;29;20046;-72
2022/01/17 11:17:46;;;;;;;32.38;17.67;;;;;;;;;;4932924;29;20078;-72
2022/01/17 11:20:13;;;;;;;24.70;17.48;;;;;;;;;;4934172;29;20042;-71
2022/01/17 11:22:41;;;;;;;31.17;18.20;;;;;;;;;;4933008;29;20036;-72
2022/01/17 11:25:09;;;;;;;24.77;16.65;;;;;;;;;;4933235;29;20370;-71
2022/01/17 11:27:35;;;;;;;25.55;17.63;;;;;;;;;;4933518;29;20016;-71
2022/01/17 11:30:03;;;;;;;24.27;16.20;;;;;;;;;;4933311;29;20038;-71
2022/01/17 11:32:29;;;;;;;28.80;18.38;;;;;;;;;;4933701;29;20036;-71
2022/01/17 11:35:01;;;;;;;25.75;17.00;;;;;;;;;;4933826;29;20039;-72
2022/01/17 11:37:32;;;;;;;23.83;17.38;;;;;;;;;;4933525;28;20531;-71
2022/01/17 11:39:58;;;;;;;25.77;17.00;;;;;;;;;;4933653;28;20823;-71
2022/01/17 11:42:30;;;;;;;23.90;16.00;;;;;;;;;;4933653;29;20276;-72
2022/01/17 11:44:57;;;;;;;25.55;15.77;;;;;;;;;;4933501;29;20035;-72
2022/01/17 11:47:59;;;;;;;22.08;16.60;;;;;;;;;;4933715;29;20030;-71
2022/01/17 11:50:31;;;;;;;22.63;16.55;;;;;;;;;;4893859;29;20490;-71
2022/01/17 11:53:13;;;;;;;24.55;17.08;;;;;;;;;;4894551;29;20168;-71
2022/01/17 11:55:42;;;;;;;;;;;;;;;;;;4890818;29;20038;-71
2022/01/17 11:58:25;;;;;;;23.95;16.75;;;;;;;;;;4890402;29;19911;-71
2022/01/17 12:01:00;;;;;;;30.20;20.80;;;;;;;;;;4890256;29;20028;-71
2022/01/17 12:03:30;;;;;;;21.85;16.77;;;;;;;;;;4890186;29;20047;-71
2022/01/17 12:06:02;;;;;;;21.67;17.52;;;;;;;;;;4893611;29;20585;-71
2022/01/17 12:08:29;;;;;;;24.75;18.85;;;;;;;;;;4891270;29;20039;-72
2022/01/17 12:10:59;;;;;;;25.95;17.80;;;;;;;;;;4893715;29;20051;-71
2022/01/17 12:13:35;;;;;;;27.77;17.42;;;;;;;;;;4889796;29;20024;-70
2022/01/17 12:16:10;;;;;;;28.23;18.73;;;;;;;;;;4871967;29;20033;-71
2022/01/17 12:18:39;;;;;;;25.02;17.98;;;;;;;;;;4895532;29;20049;-72
2022/01/17 12:21:24;;;;;;;29.13;18.13;;;;;;;;;;4875843;29;20052;-71
2022/01/17 12:24:13;;;;;;;28.48;20.35;;;;;;;;;;4913640;29;20043;-71
2022/01/17 12:26:40;;;;;;;21.23;16.42;;;;;;;;;;4932060;29;20032;-71
2022/01/17 12:29:06;;;;;;;24.63;17.45;;;;;;;;;;4933858;29;20034;-71
2022/01/17 12:31:53;;;;;;;23.20;17.33;;;;;;;;;;4932987;29;20032;-71
2022/01/17 12:34:20;;;;;;;28.58;17.38;;;;;;;;;;4933388;29;20023;-71
2022/01/17 12:36:47;;;;;;;25.65;17.70;;;;;;;;;;4931662;29;20031;-71
2022/01/17 12:39:13;;;;;;;27.85;18.20;;;;;;;;;;4931372;29;20027;-71
2022/01/17 12:41:44;;;;;;;23.42;17.80;;;;;;;;;;4932843;29;20382;-70
2022/01/17 12:44:15;;;;;;;21.55;16.05;;;;;;;;;;4933657;29;20400;-70
2022/01/17 12:46:42;;;;;;;27.02;17.55;;;;;;;;;;4963446;28;20044;-71
2022/01/17 12:49:09;;;;;;;25.25;17.10;;;;;;;;;;4963683;28;20082;-70
2022/01/17 12:51:39;;;;;;;23.45;16.10;;;;;;;;;;4932463;29;20130;-70
2022/01/17 12:54:09;;;;;;;24.85;16.92;;;;;;;;;;4963689;28;20396;-70
2022/01/17 12:56:36;;;;;;;23.42;16.25;;;;;;;;;;4933797;28;20085;-72
2022/01/17 12:59:02;;;;;;;25.52;17.23;;;;;;;;;;4936112;29;20042;-71
2022/01/17 13:01:30;;;;;;;23.60;18.05;;;;;;;;;;4936583;29;20046;-70
2022/01/17 13:04:04;;;;;;;24.50;16.42;;;;;;;;;;4936740;29;20035;-71
2022/01/17 13:06:31;;;;;;;6.53;5.03;;;;;;;;;;4935870;29;20040;-70
2022/01/17 13:09:00;;;;;;;26.60;16.00;;;;;;;;;;4936741;29;20024;-70
2022/01/17 13:11:27;;;;;;;25.27;15.88;;;;;;;;;;4936685;29;20019;-70
2022/01/17 13:14:01;;;;;;;18.83;13.07;;;;;;;;;;4936428;29;20493;-71
2022/01/17 13:16:31;;;;;;;14.38;10.13;;;;;;;;;;4936156;29;20015;-70
2022/01/17 13:18:58;;;;;;;21.90;15.00;;;;;;;;;;4936179;29;20032;-70
2022/01/17 13:21:25;;;;;;;20.83;14.95;;;;;;;;;;4935366;29;20032;-72
2022/01/17 13:24:13;;;;;;;16.35;11.27;;;;;;;;;;4935630;29;20485;-71
2022/01/17 13:26:43;;;;;;;30.15;18.13;;;;;;;;;;4935979;29;20020;-70
2022/01/17 13:29:10;;;;;;;19.02;13.05;;;;;;;;;;4935777;29;20493;-70
2022/01/17 13:31:37;;;;;;;13.52;10.10;;;;;;;;;;4936008;29;20396;-71
2022/01/17 13:34:15;;;;;;;15.27;9.65;;;;;;;;;;4935687;29;20034;-71
2022/01/17 13:36:42;;;;;;;8.30;4.80;;;;;;;;;;4934900;29;20027;-70
2022/01/17 13:39:13;;;;;;;3.65;2.50;;;;;;;;;;4935067;29;20045;-72
2022/01/17 13:41:41;;;;;;;4.32;1.70;;;;;;;;;;4936237;29;20034;-70
2022/01/17 13:44:08;;;;;;;1.73;1.08;;;;;;;;;;4934626;29;20019;-71
2022/01/17 13:46:43;;;;;;;1.33;1.08;;;;;;;;;;4935158;29;20031;-71
2022/01/17 13:49:10;;;;;;;2.38;1.05;;;;;;;;;;4935322;29;20102;-70
2022/01/17 13:51:36;;;;;;;3.63;1.33;;;;;;;;;;4935785;29;20034;-70
2022/01/17 13:54:03;;;;;;;3.28;1.50;;;;;;;;;;4935687;29;20086;-70
2022/01/17 13:56:36;;;;;;;1.23;0.90;;;;;;;;;;4935838;29;20020;-70
2022/01/17 13:59:04;;;;;;;2.22;1.40;;;;;;;;;;4935894;29;20493;-70
2022/01/17 14:01:36;;;;;;;1.58;1.27;;;;;;;;;;4954636;28;20516;-69
2022/01/17 14:04:04;;;;;;;5.40;1.20;;;;;;;;;;4934784;29;20027;-70
2022/01/17 14:06:31;;;;;;;1.75;1.15;;;;;;;;;;4934551;29;20050;-71
2022/01/17 14:08:59;;;;;;;2.65;1.08;;;;;;;;;;4935374;29;20036;-71
2022/01/17 14:11:26;;;;;;;3.72;1.25;;;;;;;;;;4935491;29;20492;-71
2022/01/17 14:13:54;;;;;;;1.90;1.50;;;;;;;;;;4935538;29;20058;-70
2022/01/17 14:16:24;;;;;;;5.63;1.20;;;;;;;;;;4935140;29;20016;-71
2022/01/17 14:18:52;;;;;;;1.67;1.25;;;;;;;;;;4934543;29;20038;-70
2022/01/17 14:21:25;;;;;;;1.40;1.23;;;;;;;;;;4934022;29;20035;-71
2022/01/17 14:24:06;;;;;;;1.92;1.13;;;;;;;;;;4934969;29;20024;-70
2022/01/17 14:26:33;;;;;;;4.07;1.10;;;;;;;;;;4934893;29;20515;-71
2022/01/17 14:28:59;;;;;;;5.93;1.42;;;;;;;;;;4935092;29;20528;-71
2022/01/17 14:31:31;;;;;;;3.72;1.40;;;;;;;;;;4935088;29;20031;-70
2022/01/17 14:34:16;;;;;;;8.23;1.40;;;;;;;;;;4934232;29;20042;-71
2022/01/17 14:36:43;;;;;;;3.90;1.10;;;;;;;;;;4933288;29;20044;-71
2022/01/17 14:39:10;;;;;;;4.20;1.20;;;;;;;;;;4933973;29;20388;-70
2022/01/17 14:41:40;;;;;;;2.63;1.55;;;;;;;;;;4933107;29;20034;-71
2022/01/17 14:44:12;;;;;;;6.03;2.13;;;;;;;;;;4933922;29;20039;-71
2022/01/17 14:46:49;;;;;;;6.13;1.80;;;;;;;;;;4934325;29;20020;-71
2022/01/17 14:49:19;;;;;;;3.60;1.63;;;;;;;;;;4932664;29;20050;-69
2022/01/17 14:51:47;;;;;;;2.20;0.90;;;;;;;;;;4934190;29;20805;-71
2022/01/17 14:54:23;;;;;;;0.93;0.80;;;;;;;;;;4933712;29;20035;-70